Time;durP1;ratioP1;P1;durP2;ratioP2;P2;SDS_P1;SDS_P2;PMS_P1;PMS_P2;Temp;Humidity;BMP_temperature;BMP_pressure;BME280_temperature;BME280_humidity;BME280_pressure;Samples;Min_cycle;Max_cycle;Signal;HPM_P1;HPM_P2
2020/12/11 05:19:03;;;;;;;13.65;6.57;;;2.00;99.90;;;;;;5459767;23;20305;-71
2020/12/11 05:21:30;;;;;;;;;;;2.10;99.90;;;;;;4897031;29;20111;-71
2020/12/11 05:24:00;;;;;;;10.30;6.53;;;2.00;99.90;;;;;;4892656;29;20010;-71
2020/12/11 05:26:27;;;;;;;15.90;8.00;;;1.90;99.90;;;;;;4898656;29;20024;-72
2020/12/11 05:28:53;;;;;;;12.38;7.75;;;1.80;99.90;;;;;;4894394;29;20041;-72
2020/12/11 05:31:18;;;;;;;10.52;6.72;;;1.80;99.90;;;;;;4892882;29;20428;-76
2020/12/11 05:34:04;;;;;;;14.23;7.32;;;1.80;99.90;;;;;;4900157;29;20428;-75
2020/12/11 05:36:46;;;;;;;10.15;6.68;;;1.90;99.90;;;;;;4900083;29;20029;-87
2020/12/11 05:39:12;;;;;;;13.77;6.75;;;2.00;99.90;;;;;;4887646;29;20029;-76
2020/12/11 05:41:38;;;;;;;13.02;6.80;;;2.10;99.90;;;;;;4900014;29;20035;-75
2020/12/11 05:44:32;;;;;;;12.52;7.15;;;2.40;99.90;;;;;;4886638;29;20045;-77
2020/12/11 05:47:16;;;;;;;11.02;6.53;;;2.50;99.90;;;;;;4899061;29;20608;-75
2020/12/11 05:49:42;;;;;;;15.13;7.03;;;2.40;99.90;;;;;;4880803;29;20389;-82
2020/12/11 05:52:16;;;;;;;13.20;7.13;;;2.40;99.90;;;;;;4895115;29;20060;-76
2020/12/11 05:54:43;;;;;;;13.20;7.30;;;2.30;99.90;;;;;;4896605;29;20043;-75
2020/12/11 05:57:11;;;;;;;12.95;7.90;;;2.30;99.90;;;;;;4897874;29;20040;-77
2020/12/11 05:59:37;;;;;;;13.38;6.88;;;2.30;99.90;;;;;;4886795;29;20035;-86
2020/12/11 06:02:03;;;;;;;11.13;5.97;;;2.20;99.90;;;;;;4895005;29;20040;-80
2020/12/11 06:04:29;;;;;;;13.00;6.22;;;2.20;99.90;;;;;;4896986;29;20484;-79
2020/12/11 06:06:57;;;;;;;14.00;7.63;;;2.20;99.90;;;;;;4893677;29;20385;-80
2020/12/11 06:09:34;;;;;;;13.75;8.18;;;2.10;99.90;;;;;;4896740;29;20528;-80
2020/12/11 06:12:02;;;;;;;14.25;8.85;;;2.00;99.90;;;;;;4889975;29;20028;-77
2020/12/11 06:14:42;;;;;;;13.68;7.90;;;1.90;99.90;;;;;;4883125;29;20160;-78
2020/12/11 06:17:08;;;;;;;;;;;1.90;99.90;;;;;;4888487;29;20017;-78
2020/12/11 06:19:40;;;;;;;13.30;7.20;;;1.90;99.90;;;;;;4871362;29;19924;-79
2020/12/11 06:22:07;;;;;;;15.63;8.25;;;1.90;99.90;;;;;;4861362;29;20029;-79
2020/12/11 06:24:34;;;;;;;13.07;8.05;;;1.90;99.90;;;;;;4865269;29;20401;-80
2020/12/11 06:27:02;;;;;;;15.57;8.35;;;1.90;99.90;;;;;;4869424;29;20485;-81
2020/12/11 06:29:41;;;;;;;18.30;8.80;;;2.00;99.90;;;;;;4892988;29;20120;-85
2020/12/11 06:32:07;;;;;;;18.58;8.73;;;2.00;99.90;;;;;;4868682;29;20021;-82
2020/12/11 06:34:33;;;;;;;14.73;8.82;;;2.20;99.90;;;;;;4868077;29;20512;-82
2020/12/11 06:36:59;;;;;;;13.85;8.55;;;2.30;99.90;;;;;;4874317;29;20061;-82
2020/12/11 06:39:46;;;;;;;15.55;7.97;;;2.30;99.90;;;;;;4861981;29;20425;-81
2020/12/11 06:42:39;;;;;;;13.45;8.68;;;2.30;99.90;;;;;;4872944;29;20021;-81
2020/12/11 06:45:17;;;;;;;15.85;9.40;;;2.20;99.90;;;;;;4869331;29;20029;-81
2020/12/11 06:47:57;;;;;;;17.90;8.85;;;2.20;99.90;;;;;;4870173;29;20037;-81
2020/12/11 06:50:26;;;;;;;14.95;7.88;;;2.20;99.90;;;;;;4876735;29;20486;-81
2020/12/11 06:52:52;;;;;;;18.23;8.82;;;2.20;99.90;;;;;;4861557;29;20033;-81
2020/12/11 06:55:18;;;;;;;14.70;8.75;;;2.20;99.90;;;;;;4875002;29;20535;-81
2020/12/11 06:57:45;;;;;;;13.35;8.25;;;2.10;99.90;;;;;;4880207;29;20040;-81
2020/12/11 07:00:29;;;;;;;15.88;9.38;;;2.00;99.90;;;;;;4866699;29;20052;-81
2020/12/11 07:03:21;;;;;;;18.40;9.10;;;2.00;99.90;;;;;;4869348;29;20033;-81
2020/12/11 07:06:13;;;;;;;17.95;9.48;;;1.90;99.90;;;;;;4862985;29;20025;-81
2020/12/11 07:08:39;;;;;;;14.88;8.43;;;1.90;99.90;;;;;;4861088;29;20033;-81
2020/12/11 07:11:07;;;;;;;16.58;8.65;;;1.80;99.90;;;;;;4861134;29;20112;-77
2020/12/11 07:13:35;;;;;;;16.92;9.05;;;1.70;99.90;;;;;;4872319;29;20503;-79
2020/12/11 07:16:01;;;;;;;17.33;8.23;;;1.70;99.90;;;;;;4879497;29;20053;-82
2020/12/11 07:18:27;;;;;;;15.32;9.68;;;2.40;99.90;;;;;;4869796;29;20506;-77
2020/12/11 07:20:55;;;;;;;12.55;7.60;;;2.90;99.90;;;;;;4863025;29;20409;-84
2020/12/11 07:23:22;;;;;;;13.25;8.48;;;2.80;99.90;;;;;;4871388;29;20037;-80
2020/12/11 07:25:49;;;;;;;13.02;8.73;;;2.50;99.90;;;;;;4861184;29;20359;-76
2020/12/11 07:28:15;;;;;;;15.02;8.52;;;2.30;99.90;;;;;;4863079;29;20100;-77
2020/12/11 07:30:48;;;;;;;17.30;9.05;;;2.20;99.90;;;;;;4862495;29;20037;-80
2020/12/11 07:33:14;;;;;;;17.13;9.23;;;2.10;99.90;;;;;;4860940;29;20515;-80
2020/12/11 07:35:47;;;;;;;14.50;9.13;;;2.00;99.90;;;;;;4864034;29;20025;-76
2020/12/11 07:38:13;;;;;;;17.13;9.27;;;1.90;99.90;;;;;;4861715;29;20477;-79
2020/12/11 07:40:39;;;;;;;15.07;8.70;;;1.90;99.90;;;;;;4862091;29;20040;-76
2020/12/11 07:43:07;;;;;;;17.33;9.60;;;1.80;99.90;;;;;;4864477;29;20018;-77
2020/12/11 07:45:36;;;;;;;16.20;9.20;;;1.80;99.90;;;;;;4860936;29;20441;-76
2020/12/11 07:48:03;;;;;;;15.95;9.73;;;1.80;99.90;;;;;;4860131;29;20101;-75
2020/12/11 07:50:30;;;;;;;16.52;9.40;;;1.70;99.90;;;;;;4863390;29;20091;-75
2020/12/11 07:52:56;;;;;;;20.42;9.95;;;1.70;99.90;;;;;;4862763;29;20036;-75
2020/12/11 07:55:24;;;;;;;23.70;9.23;;;1.90;99.90;;;;;;4881568;29;20090;-80
2020/12/11 07:57:58;;;;;;;15.75;9.50;;;2.80;99.90;;;;;;4862828;29;20025;-75
2020/12/11 08:00:25;;;;;;;18.27;9.23;;;2.90;99.90;;;;;;4861632;29;20178;-72
2020/12/11 08:02:52;;;;;;;15.38;9.95;;;2.60;99.90;;;;;;4869745;29;20029;-72
2020/12/11 08:05:18;;;;;;;16.70;9.35;;;2.50;99.90;;;;;;4880099;29;20484;-70
2020/12/11 08:07:51;;;;;;;21.95;10.18;;;2.50;99.90;;;;;;4876667;29;20051;-72
2020/12/11 08:10:20;;;;;;;17.88;9.65;;;2.50;99.90;;;;;;4871058;29;20042;-72
2020/12/11 08:12:47;;;;;;;16.23;8.80;;;2.40;99.90;;;;;;4873780;29;20032;-72
2020/12/11 08:15:31;;;;;;;10.63;6.97;;;2.70;99.90;;;;;;4886806;29;20088;-71
2020/12/11 08:18:09;;;;;;;14.65;8.73;;;2.80;99.90;;;;;;4871615;29;20027;-72
2020/12/11 08:20:43;;;;;;;20.30;9.20;;;2.50;99.90;;;;;;4869971;29;20067;-72
2020/12/11 08:23:19;;;;;;;15.40;8.70;;;2.60;99.90;;;;;;4885456;29;20059;-72
2020/12/11 08:25:45;;;;;;;13.70;7.70;;;2.40;99.90;;;;;;4866239;29;20520;-72
2020/12/11 08:28:10;;;;;;;16.73;9.23;;;2.20;99.90;;;;;;4876304;29;20025;-73
2020/12/11 08:30:36;;;;;;;14.93;8.30;;;2.10;99.90;;;;;;4882786;29;20051;-72
2020/12/11 08:33:12;;;;;;;17.13;9.02;;;1.90;99.90;;;;;;4872598;29;20022;-72
2020/12/11 08:35:38;;;;;;;13.60;8.48;;;1.90;99.90;;;;;;4868648;29;20033;-72
2020/12/11 08:38:05;;;;;;;11.05;6.80;;;1.90;99.90;;;;;;4864756;29;20438;-72
2020/12/11 08:40:44;;;;;;;16.65;7.40;;;1.80;99.90;;;;;;4873389;29;20061;-69
2020/12/11 08:45:43;;;;;;;16.67;7.85;;;2.20;99.90;;;;;;4889408;29;20033;-71
2020/12/11 08:50:58;;;;;;;13.65;6.90;;;2.30;99.90;;;;;;4879100;29;20065;-76
2020/12/11 08:53:26;;;;;;;10.77;6.25;;;2.10;99.90;;;;;;4865757;29;20057;-76
2020/12/11 08:55:52;;;;;;;7.85;5.03;;;1.80;99.90;;;;;;4865456;29;20059;-76
2020/12/11 08:58:18;;;;;;;10.02;5.63;;;1.60;99.90;;;;;;4867202;29;20061;-76
2020/12/11 09:00:44;;;;;;;10.57;5.63;;;1.60;99.90;;;;;;4872663;29;20017;-76
2020/12/11 09:03:09;;;;;;;8.57;5.18;;;1.50;99.90;;;;;;4860037;29;20099;-76
2020/12/11 09:05:35;;;;;;;10.18;5.57;;;1.50;99.90;;;;;;4872788;29;20033;-76
2020/12/11 09:08:01;;;;;;;9.95;5.80;;;1.50;99.90;;;;;;4866978;29;20113;-76
2020/12/11 09:10:27;;;;;;;10.60;6.15;;;1.50;99.90;;;;;;4865361;29;20057;-76
2020/12/11 09:12:53;;;;;;;9.35;5.50;;;1.40;99.90;;;;;;4872515;29;20741;-76
2020/12/11 09:15:21;;;;;;;11.55;5.72;;;1.40;99.90;;;;;;4878997;29;20029;-81
2020/12/11 09:17:47;;;;;;;7.97;4.80;;;2.60;99.90;;;;;;4864922;29;20033;-78
2020/12/11 09:20:13;;;;;;;10.02;5.03;;;3.10;99.90;;;;;;4881338;29;20045;-77
2020/12/11 09:22:39;;;;;;;7.45;5.10;;;2.80;99.90;;;;;;4865059;29;20386;-75
2020/12/11 09:25:05;;;;;;;8.20;5.57;;;2.40;99.90;;;;;;4870142;29;20030;-76
2020/12/11 09:27:33;;;;;;;10.38;5.90;;;2.10;99.90;;;;;;4862734;29;20508;-81
2020/12/11 09:30:14;;;;;;;9.38;6.22;;;1.90;99.90;;;;;;4869593;29;20041;-81
2020/12/11 09:35:08;;;;;;;8.73;5.60;;;1.70;99.90;;;;;;4862933;29;20120;-81
2020/12/11 09:37:34;;;;;;;14.27;6.53;;;1.70;99.90;;;;;;4858893;29;20096;-82
2020/12/11 09:40:00;;;;;;;8.88;6.03;;;1.60;99.90;;;;;;4861038;29;20026;-82
2020/12/11 09:45:34;;;;;;;10.65;6.53;;;1.60;99.90;;;;;;4855904;29;20044;-82
2020/12/11 09:48:24;;;;;;;10.48;5.78;;;1.50;99.90;;;;;;4864221;29;20033;-78
2020/12/11 09:50:57;;;;;;;12.20;6.68;;;1.70;99.90;;;;;;4871956;29;20093;-77
2020/12/11 09:54:08;;;;;;;11.82;6.60;;;1.60;99.90;;;;;;4863443;29;20033;-73
2020/12/11 09:56:20;;;;;;;10.35;6.93;;;1.70;99.90;;;;;;4856294;29;20120;-74
2020/12/11 09:58:47;;;;;;;12.73;6.70;;;1.70;99.90;;;;;;4865286;29;20018;-75
2020/12/11 10:01:13;;;;;;;15.80;7.07;;;1.70;99.90;;;;;;4860160;29;20025;-74
2020/12/11 10:03:41;;;;;;;9.85;5.95;;;1.60;99.90;;;;;;4859748;29;20069;-77
2020/12/11 10:06:08;;;;;;;11.02;6.60;;;1.50;99.90;;;;;;4863778;29;20512;-77
2020/12/11 10:08:35;;;;;;;16.58;7.43;;;1.50;99.90;;;;;;4862662;29;20072;-77
2020/12/11 10:11:01;;;;;;;10.48;6.75;;;1.40;99.90;;;;;;4865965;29;20034;-77
2020/12/11 10:13:27;;;;;;;14.90;7.03;;;1.50;99.90;;;;;;4866084;29;20025;-77
2020/12/11 10:15:53;;;;;;;14.75;6.70;;;1.40;99.90;;;;;;4864357;29;20024;-77
2020/12/11 10:18:18;;;;;;;10.73;6.28;;;1.40;99.90;;;;;;4863612;29;20091;-77
2020/12/11 10:20:44;;;;;;;11.70;6.97;;;1.40;99.90;;;;;;4871881;29;20037;-78
2020/12/11 10:23:10;;;;;;;9.95;6.55;;;1.40;99.90;;;;;;4878650;29;20097;-77
2020/12/11 10:25:36;;;;;;;9.52;6.25;;;1.40;99.90;;;;;;4888159;29;20029;-80
2020/12/11 10:28:02;;;;;;;11.32;6.75;;;1.40;99.90;;;;;;4882996;29;20704;-76
2020/12/11 10:30:28;;;;;;;9.98;6.32;;;1.70;99.90;;;;;;4868656;29;20032;-76
2020/12/11 10:32:54;;;;;;;9.82;6.28;;;1.60;99.90;;;;;;4866562;29;20125;-76
2020/12/11 10:35:20;;;;;;;8.82;5.78;;;1.60;99.90;;;;;;4874846;29;20026;-76
2020/12/11 10:37:46;;;;;;;11.73;7.55;;;1.50;99.90;;;;;;4872333;29;20521;-78
2020/12/11 10:40:12;;;;;;;12.52;7.18;;;1.50;99.90;;;;;;4867379;29;20075;-77
2020/12/11 10:42:38;;;;;;;13.27;7.05;;;1.50;99.90;;;;;;4871710;29;20497;-87
2020/12/11 10:45:03;;;;;;;14.55;7.22;;;1.50;99.90;;;;;;4890501;29;20033;-91
2020/12/11 10:47:30;;;;;;;10.13;5.95;;;1.50;99.90;;;;;;4876501;29;20055;-89
2020/12/11 10:49:56;;;;;;;9.20;5.97;;;1.50;99.90;;;;;;4882994;29;20442;-83
2020/12/11 10:52:21;;;;;;;11.75;7.20;;;1.40;99.90;;;;;;4861216;29;20184;-74
2020/12/11 10:54:55;;;;;;;11.82;6.55;;;1.40;99.90;;;;;;4863828;29;20029;-78
2020/12/11 10:57:20;;;;;;;9.55;6.13;;;1.50;99.90;;;;;;4866105;29;20032;-77
2020/12/11 10:59:46;;;;;;;10.05;6.35;;;1.50;99.90;;;;;;4863581;29;20029;-76
2020/12/11 11:02:12;;;;;;;10.48;6.28;;;1.50;99.90;;;;;;4867889;29;20032;-77
2020/12/11 11:04:37;;;;;;;12.18;6.88;;;1.50;99.90;;;;;;4887207;29;20029;-77
2020/12/11 11:07:15;;;;;;;10.63;5.72;;;1.50;99.90;;;;;;4889710;29;20084;-78
2020/12/11 11:12:28;;;;;;;12.85;6.43;;;1.50;99.90;;;;;;4881751;29;20041;-78
2020/12/11 11:26:15;;;;;;;14.73;6.35;;;1.60;99.90;;;;;;4882763;29;20061;-77
2020/12/11 11:28:32;;;;;;;12.82;6.85;;;1.50;99.90;;;;;;4864728;29;20524;-78
2020/12/11 11:30:57;;;;;;;14.80;6.35;;;1.50;99.90;;;;;;4875957;29;20047;-77
2020/12/11 11:33:23;;;;;;;8.98;5.78;;;1.50;99.90;;;;;;4873728;29;20025;-77
2020/12/11 11:35:49;;;;;;;8.85;6.15;;;1.40;99.90;;;;;;4870106;29;20021;-78
2020/12/11 11:38:17;;;;;;;11.63;6.05;;;1.40;99.90;;;;;;4876437;29;20025;-78
2020/12/11 11:40:44;;;;;;;13.32;6.47;;;1.40;99.90;;;;;;4872717;29;20032;-78
2020/12/11 11:43:09;;;;;;;10.13;6.25;;;1.40;99.90;;;;;;4871657;29;20101;-78
2020/12/11 11:45:37;;;;;;;15.32;6.50;;;1.40;99.90;;;;;;4861756;29;20398;-77
2020/12/11 11:48:10;;;;;;;12.18;6.55;;;1.40;99.90;;;;;;4861487;29;20022;-77
2020/12/11 11:53:15;;;;;;;10.18;5.80;;;1.50;99.90;;;;;;4866911;29;20053;-78
2020/12/11 11:55:42;;;;;;;9.40;5.93;;;1.50;99.90;;;;;;4864084;29;20112;-79
2020/12/11 11:58:08;;;;;;;12.05;6.32;;;1.50;99.90;;;;;;4860091;29;20081;-82
2020/12/11 12:00:34;;;;;;;8.40;5.60;;;1.50;99.90;;;;;;4871668;29;20051;-81
2020/12/11 12:03:00;;;;;;;8.35;5.85;;;1.50;99.90;;;;;;4874695;29;20389;-82
2020/12/11 12:05:26;;;;;;;11.55;5.97;;;1.50;99.90;;;;;;4873890;29;20031;-83
2020/12/11 12:07:51;;;;;;;11.52;5.25;;;1.50;99.90;;;;;;4880688;29;20468;-86
2020/12/11 12:10:17;;;;;;;13.95;5.43;;;1.50;99.90;;;;;;4871224;29;20478;-81
2020/12/11 12:12:43;;;;;;;10.90;6.20;;;1.50;99.90;;;;;;4873821;29;20036;-80
2020/12/11 12:15:13;;;;;;;10.65;6.15;;;1.50;99.90;;;;;;4876940;29;20033;-79
2020/12/11 12:17:48;;;;;;;9.63;5.93;;;1.50;99.90;;;;;;4880079;29;20101;-82
2020/12/11 12:21:21;;;;;;;12.60;6.00;;;1.60;99.90;;;;;;4868049;29;20060;-79
2020/12/11 12:30:59;;;;;;;9.27;5.75;;;1.50;99.90;;;;;;4859919;29;20037;-76
2020/12/11 12:38:58;;;;;;;12.27;6.90;;;1.50;99.90;;;;;;4873024;29;20184;-80
2020/12/11 12:44:08;;;;;;;8.73;6.10;;;1.50;99.90;;;;;;4867416;29;20040;-81
2020/12/11 12:46:33;;;;;;;11.95;6.15;;;2.30;99.90;;;;;;4871945;29;20033;-81
2020/12/11 12:48:59;;;;;;;10.77;6.70;;;2.00;99.90;;;;;;4877483;29;20408;-81
2020/12/11 12:51:25;;;;;;;11.15;6.72;;;1.80;99.90;;;;;;4871909;29;20036;-81
2020/12/11 12:53:50;;;;;;;9.27;6.07;;;1.70;99.90;;;;;;4877356;29;20100;-81
2020/12/11 12:56:37;;;;;;;10.60;7.28;;;1.60;99.90;;;;;;4871739;29;20099;-80
2020/12/11 12:59:12;;;;;;;10.52;6.10;;;1.60;99.90;;;;;;4876030;29;20017;-80
2020/12/11 13:04:53;;;;;;;11.82;7.05;;;1.60;99.90;;;;;;4814212;29;20030;-81
2020/12/11 13:07:19;;;;;;;11.93;6.60;;;1.60;99.90;;;;;;4868445;29;20124;-81
2020/12/11 13:09:45;;;;;;;9.77;5.85;;;1.60;99.90;;;;;;4878505;29;20488;-81
2020/12/11 13:12:10;;;;;;;14.57;7.10;;;1.90;99.90;;;;;;4873760;29;20025;-77
2020/12/11 13:14:36;;;;;;;14.02;8.23;;;2.20;99.90;;;;;;4876595;29;20028;-85
2020/12/11 13:17:05;;;;;;;10.55;6.15;;;3.10;99.90;;;;;;4873453;29;20112;-78
2020/12/11 13:19:33;;;;;;;12.85;6.32;;;2.80;99.90;;;;;;4874716;29;20583;-86
2020/12/11 13:22:18;;;;;;;11.07;6.43;;;2.40;99.90;;;;;;4878499;29;20025;-78
2020/12/11 13:27:29;;;;;;;11.25;6.70;;;2.10;99.90;;;;;;4870547;29;20050;-80
2020/12/11 13:29:56;;;;;;;11.88;7.00;;;2.00;99.90;;;;;;4867465;29;20080;-82
2020/12/11 13:32:22;;;;;;;13.00;6.95;;;1.80;99.90;;;;;;4875343;29;20422;-82
2020/12/11 13:34:49;;;;;;;13.35;7.05;;;1.70;99.90;;;;;;4875819;29;20473;-82
2020/12/11 13:37:15;;;;;;;11.02;6.65;;;1.60;99.90;;;;;;4867291;29;20053;-80
2020/12/11 13:39:41;;;;;;;14.32;7.03;;;1.60;99.90;;;;;;4874998;29;20574;-79
2020/12/11 13:42:07;;;;;;;13.57;7.00;;;1.50;99.90;;;;;;4868642;29;20026;-78
2020/12/11 13:44:32;;;;;;;10.73;6.70;;;1.40;99.90;;;;;;4866175;29;20053;-77
2020/12/11 13:46:58;;;;;;;11.60;6.65;;;1.40;99.90;;;;;;4860737;29;20021;-78
2020/12/11 13:49:24;;;;;;;13.25;6.88;;;1.40;99.90;;;;;;4861819;29;20497;-79
2020/12/11 13:51:51;;;;;;;11.73;6.95;;;1.40;99.90;;;;;;4865783;29;20030;-79
2020/12/11 13:54:17;;;;;;;13.15;7.00;;;1.40;99.90;;;;;;4864369;29;20492;-80
2020/12/11 13:56:47;;;;;;;11.95;7.75;;;1.30;99.90;;;;;;4874032;29;20037;-82
2020/12/11 13:59:13;;;;;;;11.98;6.85;;;1.30;99.90;;;;;;4866276;29;20022;-78
2020/12/11 14:01:39;;;;;;;11.63;7.35;;;1.30;99.90;;;;;;4864901;29;20044;-78
2020/12/11 14:04:04;;;;;;;14.20;8.13;;;1.30;99.90;;;;;;4865516;29;20555;-81
2020/12/11 14:06:31;;;;;;;12.07;6.50;;;1.30;99.90;;;;;;4882440;29;20041;-81
2020/12/11 14:09:00;;;;;;;9.40;6.35;;;1.30;99.90;;;;;;4878538;29;20413;-82
2020/12/11 14:11:27;;;;;;;11.18;6.88;;;1.20;99.90;;;;;;4879157;29;20484;-83
2020/12/11 14:13:53;;;;;;;11.70;7.60;;;1.20;99.90;;;;;;4882739;29;20072;-80
2020/12/11 14:16:39;;;;;;;14.18;7.97;;;1.20;99.90;;;;;;4889933;29;20021;-81
2020/12/11 14:24:10;;;;;;;12.57;6.78;;;1.20;99.90;;;;;;4863225;29;20078;-83
2020/12/11 14:26:37;;;;;;;12.48;7.18;;;1.10;99.90;;;;;;4868673;29;20021;-80
2020/12/11 14:29:03;;;;;;;13.82;6.60;;;1.10;99.90;;;;;;4867438;29;20054;-80
2020/12/11 14:31:32;;;;;;;9.02;6.13;;;1.10;99.90;;;;;;4863610;29;20034;-81
2020/12/11 14:33:58;;;;;;;11.18;6.15;;;1.00;99.90;;;;;;4868286;29;20024;-78
2020/12/11 14:36:24;;;;;;;9.68;5.85;;;1.00;99.90;;;;;;4860582;29;20061;-79
2020/12/11 14:41:23;;;;;;;8.60;5.50;;;1.00;99.90;;;;;;4867260;29;20097;-79
2020/12/11 14:43:50;;;;;;;7.15;4.82;;;1.00;99.90;;;;;;4860234;29;20036;-78
2020/12/11 14:46:23;;;;;;;6.57;4.35;;;1.00;99.90;;;;;;4860620;29;20773;-80
2020/12/11 14:48:51;;;;;;;8.45;5.38;;;1.00;99.90;;;;;;4860234;29;20505;-79
2020/12/11 14:51:17;;;;;;;10.80;5.75;;;1.00;99.90;;;;;;4867717;29;20508;-81
2020/12/11 14:53:43;;;;;;;9.07;5.03;;;1.00;99.90;;;;;;4862670;29;20381;-81
2020/12/11 14:56:09;;;;;;;7.95;4.90;;;1.00;99.90;;;;;;4872957;29;20041;-77
2020/12/11 14:58:35;;;;;;;8.45;5.18;;;1.10;99.90;;;;;;4868135;29;20021;-81
2020/12/11 15:01:02;;;;;;;9.23;5.75;;;1.20;99.90;;;;;;4880511;29;20405;-81
2020/12/11 15:03:27;;;;;;;8.43;5.35;;;1.20;99.90;;;;;;4861983;29;20024;-81
2020/12/11 15:05:54;;;;;;;11.55;5.57;;;1.20;99.90;;;;;;4864072;29;20445;-82
2020/12/11 15:08:20;;;;;;;11.75;5.95;;;1.10;99.90;;;;;;4870718;29;20470;-83
2020/12/11 15:10:46;;;;;;;9.60;5.78;;;1.10;99.90;;;;;;4868253;29;20031;-79
2020/12/11 15:13:12;;;;;;;13.40;6.03;;;1.10;99.90;;;;;;4874137;29;20022;-80
2020/12/11 15:15:38;;;;;;;8.77;5.20;;;1.10;99.90;;;;;;4875308;29;20051;-80
2020/12/11 15:18:04;;;;;;;9.85;4.72;;;1.10;99.90;;;;;;4866595;29;20029;-83
2020/12/11 15:20:30;;;;;;;8.93;4.65;;;1.10;99.90;;;;;;4860033;29;20045;-83
2020/12/11 15:22:55;;;;;;;6.22;3.70;;;1.20;99.90;;;;;;4859275;29;20026;-82
2020/12/11 15:25:22;;;;;;;6.32;4.07;;;1.10;99.90;;;;;;4891225;29;20428;-81
2020/12/11 15:27:48;;;;;;;6.05;4.28;;;1.00;99.90;;;;;;4891742;29;20036;-83
2020/12/11 15:30:14;;;;;;;7.32;4.13;;;1.00;99.90;;;;;;4861169;29;20079;-81
2020/12/11 15:32:40;;;;;;;7.38;4.28;;;0.90;99.90;;;;;;4860260;29;20423;-83
2020/12/11 15:35:06;;;;;;;4.95;3.60;;;1.00;99.90;;;;;;4859789;29;20025;-82
2020/12/11 15:37:32;;;;;;;4.90;3.60;;;1.00;99.90;;;;;;4868745;29;20485;-82
2020/12/11 15:39:57;;;;;;;5.72;4.43;;;0.90;99.90;;;;;;4866128;29;20117;-82
2020/12/11 15:42:23;;;;;;;7.53;4.57;;;1.00;99.90;;;;;;4871165;29;20121;-84
2020/12/11 15:44:50;;;;;;;7.15;4.35;;;1.00;99.90;;;;;;4870378;29;20085;-81
2020/12/11 15:47:15;;;;;;;5.60;3.63;;;0.90;99.90;;;;;;4859657;29;20030;-81
2020/12/11 15:49:41;;;;;;;6.35;4.18;;;0.90;99.90;;;;;;4859292;29;20080;-80
2020/12/11 15:52:07;;;;;;;9.13;5.10;;;0.90;99.90;;;;;;4872115;29;20049;-81
2020/12/11 15:54:33;;;;;;;8.48;5.43;;;0.90;99.90;;;;;;4859426;29;20082;-82
2020/12/11 15:56:58;;;;;;;9.15;5.40;;;0.90;99.90;;;;;;4859583;29;20030;-80
2020/12/11 15:59:24;;;;;;;8.25;5.28;;;0.90;99.90;;;;;;4867540;29;20028;-83
2020/12/11 16:01:50;;;;;;;8.13;5.53;;;0.90;99.90;;;;;;4881659;29;20486;-84
2020/12/11 16:04:16;;;;;;;12.43;5.32;;;0.80;99.90;;;;;;4865612;29;20108;-84
2020/12/11 16:06:42;;;;;;;8.77;5.20;;;0.80;99.90;;;;;;4884015;29;20482;-78
2020/12/11 16:09:07;;;;;;;7.55;5.13;;;0.70;99.90;;;;;;4881084;29;20033;-86
2020/12/11 16:11:33;;;;;;;7.57;5.32;;;0.90;99.90;;;;;;4870555;29;20026;-87
2020/12/11 16:13:59;;;;;;;9.57;5.32;;;0.90;99.90;;;;;;4868367;29;20031;-86
2020/12/11 16:16:27;;;;;;;7.07;5.18;;;0.80;99.90;;;;;;4879444;29;20028;-82
2020/12/11 16:18:55;;;;;;;8.18;5.55;;;0.80;99.90;;;;;;4873206;29;20029;-82
2020/12/11 16:21:22;;;;;;;8.85;6.35;;;0.80;99.90;;;;;;4865348;29;20481;-83
2020/12/11 16:23:48;;;;;;;8.30;5.45;;;0.70;99.90;;;;;;4880556;29;20385;-83
2020/12/11 16:26:14;;;;;;;7.75;4.97;;;0.70;99.90;;;;;;4873706;29;20033;-83
2020/12/11 16:28:40;;;;;;;10.48;5.15;;;0.70;99.90;;;;;;4885152;29;20367;-82
2020/12/11 16:31:16;;;;;;;10.02;5.55;;;0.70;99.90;;;;;;4859974;29;20033;-83
2020/12/11 16:33:42;;;;;;;9.43;5.65;;;0.70;99.90;;;;;;4860034;29;20109;-83
2020/12/11 16:36:08;;;;;;;8.10;4.80;;;0.70;99.90;;;;;;4859755;29;20033;-82
2020/12/11 16:38:34;;;;;;;9.38;5.50;;;0.70;99.90;;;;;;4859806;29;20056;-82
2020/12/11 16:41:00;;;;;;;8.32;4.63;;;0.70;99.90;;;;;;4859722;29;20474;-83
2020/12/11 16:43:36;;;;;;;7.20;4.97;;;0.60;99.90;;;;;;4861496;29;20032;-85
2020/12/11 16:46:06;;;;;;;8.23;4.97;;;0.60;99.90;;;;;;4869590;29;20036;-84
2020/12/11 16:48:35;;;;;;;8.57;5.00;;;0.60;99.90;;;;;;4859909;29;20105;-83
2020/12/11 16:51:00;;;;;;;8.18;4.38;;;0.60;99.90;;;;;;4859452;29;20071;-84
2020/12/11 16:53:26;;;;;;;6.15;4.25;;;0.60;99.90;;;;;;4885855;29;20056;-84
2020/12/11 16:55:52;;;;;;;8.50;4.63;;;0.50;99.90;;;;;;4859605;29;20170;-84
2020/12/11 16:58:18;;;;;;;6.43;4.22;;;0.40;99.90;;;;;;4880950;29;20111;-84
2020/12/11 17:00:43;;;;;;;7.97;4.80;;;0.40;99.90;;;;;;4870844;29;20037;-88
2020/12/11 17:10:54;;;;;;;10.05;5.20;;;0.60;99.90;;;;;;4877448;29;20040;-88
2020/12/11 17:13:20;;;;;;;7.18;4.65;;;0.50;99.90;;;;;;4872779;29;20092;-88
2020/12/11 17:15:46;;;;;;;7.13;4.40;;;0.50;99.90;;;;;;4878790;29;20389;-88
2020/12/11 17:18:12;;;;;;;7.00;4.60;;;0.40;99.90;;;;;;4865145;29;20093;-90
2020/12/11 17:20:38;;;;;;;8.90;5.28;;;0.40;99.90;;;;;;4874748;29;20418;-89
2020/12/11 17:23:04;;;;;;;10.30;5.68;;;0.40;99.90;;;;;;4885388;29;20448;-84
2020/12/11 17:25:29;;;;;;;7.75;5.20;;;0.40;99.90;;;;;;4874491;29;20430;-87
2020/12/11 17:27:55;;;;;;;11.75;5.00;;;0.30;99.90;;;;;;4878299;29;20096;-88
2020/12/11 17:35:12;;;;;;;7.82;5.68;;;0.30;99.90;;;;;;4863211;29;20470;-86
2020/12/11 17:37:39;;;;;;;9.00;5.57;;;0.30;99.90;;;;;;4872837;29;20116;-84
2020/12/11 17:40:05;;;;;;;9.10;5.68;;;0.30;99.90;;;;;;4881679;29;20033;-85
2020/12/11 17:42:32;;;;;;;12.68;5.97;;;0.30;99.90;;;;;;4872410;29;20073;-87
2020/12/11 17:44:58;;;;;;;7.70;5.40;;;0.60;99.90;;;;;;4863084;29;20029;-82
2020/12/11 17:47:24;;;;;;;11.98;5.20;;;0.60;99.90;;;;;;4875219;29;20049;-80
2020/12/11 17:49:49;;;;;;;8.45;5.40;;;0.50;99.90;;;;;;4861918;29;20049;-86
2020/12/11 17:52:16;;;;;;;9.90;5.35;;;0.50;99.90;;;;;;4876953;29;20033;-85
2020/12/11 17:54:43;;;;;;;9.73;6.13;;;0.50;99.90;;;;;;4865430;29;20120;-77
2020/12/11 17:57:09;;;;;;;9.10;5.85;;;0.40;99.90;;;;;;4882454;29;20176;-79
2020/12/11 17:59:35;;;;;;;9.40;6.07;;;0.40;99.90;;;;;;4866945;29;20505;-80
2020/12/11 18:02:00;;;;;;;10.30;5.72;;;0.50;99.90;;;;;;4861472;29;20022;-77
2020/12/11 18:04:26;;;;;;;7.05;5.20;;;0.50;99.90;;;;;;4866930;29;20090;-78
2020/12/11 18:06:53;;;;;;;11.77;6.18;;;0.50;99.90;;;;;;4865372;29;20029;-78
2020/12/11 18:09:21;;;;;;;9.57;6.03;;;0.50;99.90;;;;;;4867578;29;20033;-77
2020/12/11 18:11:47;;;;;;;9.40;6.40;;;0.60;99.90;;;;;;4861907;29;20036;-76
2020/12/11 18:14:18;;;;;;;10.20;6.18;;;0.60;99.90;;;;;;4862461;29;20109;-76
2020/12/11 18:16:53;;;;;;;12.70;5.75;;;0.50;99.90;;;;;;4877131;29;20492;-76
2020/12/11 18:19:19;;;;;;;9.90;6.25;;;0.60;99.90;;;;;;4872219;29;20133;-78
2020/12/11 18:21:51;;;;;;;11.95;6.43;;;0.50;99.90;;;;;;4875260;29;20528;-73
2020/12/11 18:24:26;;;;;;;13.50;7.07;;;0.50;99.90;;;;;;4862224;29;20114;-72
2020/12/11 18:26:56;;;;;;;11.20;7.50;;;0.50;99.90;;;;;;4868131;29;20026;-71
2020/12/11 18:29:26;;;;;;;11.60;7.60;;;0.50;99.90;;;;;;4864640;29;20102;-71
2020/12/11 18:31:52;;;;;;;10.63;5.63;;;0.50;99.90;;;;;;4885291;29;20389;-71
2020/12/11 18:34:18;;;;;;;13.15;6.55;;;0.50;99.90;;;;;;4870077;29;20030;-71
2020/12/11 18:36:45;;;;;;;10.65;6.53;;;0.40;99.90;;;;;;4870076;29;20120;-71
2020/12/11 18:39:11;;;;;;;12.82;7.47;;;0.40;99.90;;;;;;4884779;29;20028;-72
2020/12/11 18:41:37;;;;;;;15.63;8.57;;;0.30;99.90;;;;;;4884508;29;20023;-71
2020/12/11 18:44:03;;;;;;;15.30;6.80;;;0.30;99.90;;;;;;4886977;29;20032;-73
2020/12/11 18:46:29;;;;;;;10.98;6.85;;;0.30;99.90;;;;;;4870802;29;20057;-73
2020/12/11 18:48:55;;;;;;;11.88;7.47;;;0.20;99.90;;;;;;4882569;29;20473;-73
2020/12/11 18:51:21;;;;;;;10.27;6.25;;;0.20;99.90;;;;;;4884747;29;20048;-71
2020/12/11 18:53:47;;;;;;;11.23;6.40;;;0.10;99.90;;;;;;4880589;29;20477;-72
2020/12/11 18:56:22;;;;;;;14.23;7.90;;;0.10;99.90;;;;;;4884059;29;20029;-72
2020/12/11 18:58:48;;;;;;;12.68;7.07;;;0.20;99.90;;;;;;4887140;29;20017;-72
2020/12/11 19:01:14;;;;;;;11.60;6.82;;;0.20;99.90;;;;;;4868092;29;20070;-73
2020/12/11 19:03:39;;;;;;;15.88;7.53;;;0.30;99.90;;;;;;4873134;29;20378;-72
2020/12/11 19:06:06;;;;;;;15.80;8.00;;;0.40;99.90;;;;;;4884937;29;20036;-72
2020/12/11 19:08:32;;;;;;;13.35;7.60;;;0.50;99.90;;;;;;4873004;29;20033;-72
2020/12/11 19:10:57;;;;;;;11.25;6.90;;;0.50;99.90;;;;;;4877744;29;20065;-72
2020/12/11 19:13:25;;;;;;;12.38;6.38;;;0.40;99.90;;;;;;4881120;29;20022;-72
2020/12/11 19:15:53;;;;;;;13.23;7.05;;;0.40;99.90;;;;;;4878202;29;20051;-72
2020/12/11 19:18:19;;;;;;;13.82;7.30;;;0.30;99.90;;;;;;4874382;29;20481;-72
2020/12/11 19:20:45;;;;;;;14.30;7.13;;;0.30;99.90;;;;;;4877882;29;20038;-71
2020/12/11 19:23:11;;;;;;;12.02;7.10;;;0.30;99.90;;;;;;4862589;29;20533;-72